Time;durP1;ratioP1;P1;durP2;ratioP2;P2;SDS_P1;SDS_P2;PMS_P1;PMS_P2;Temp;Humidity;BMP_temperature;BMP_pressure;BME280_temperature;BME280_humidity;BME280_pressure;Samples;Min_cycle;Max_cycle;Signal;HPM_P1;HPM_P2
2022/04/30 00:00:17;;;;;;;16.70;13.37;;;;;;;;;;773223;181;1020752;-64
2022/04/30 00:02:43;;;;;;;20.37;13.40;;;;;;;;;;780001;178;920028;-66
2022/04/30 00:05:09;;;;;;;21.20;14.30;;;;;;;;;;766598;182;1021349;-65
2022/04/30 00:07:34;;;;;;;21.20;14.73;;;;;;;;;;766083;182;923425;-65
2022/04/30 00:10:00;;;;;;;25.10;15.03;;;;;;;;;;777026;179;917782;-65
2022/04/30 00:12:26;;;;;;;21.10;15.17;;;;;;;;;;783069;178;933470;-66
2022/04/30 00:14:54;;;;;;;23.77;17.60;;;;;;;;;;777082;178;919076;-64
2022/04/30 00:17:18;;;;;;;26.73;17.17;;;;;;;;;;776592;182;919363;-65
2022/04/30 00:19:44;;;;;;;24.30;17.87;;;;;;;;;;765951;182;918670;-65
2022/04/30 00:22:10;;;;;;;23.93;18.63;;;;;;;;;;767918;182;918287;-64
2022/04/30 00:24:35;;;;;;;27.07;16.50;;;;;;;;;;771844;182;918884;-65
2022/04/30 00:27:01;;;;;;;29.27;15.30;;;;;;;;;;778168;176;1020404;-65
2022/04/30 00:29:29;;;;;;;21.63;16.30;;;;;;;;;;770897;182;1021426;-66
2022/04/30 00:31:53;;;;;;;26.93;17.20;;;;;;;;;;767470;182;1019930;-65
2022/04/30 00:34:19;;;;;;;25.40;18.10;;;;;;;;;;774451;182;918804;-65
2022/04/30 00:36:45;;;;;;;30.70;19.53;;;;;;;;;;771270;180;919652;-65
2022/04/30 00:39:11;;;;;;;34.10;22.07;;;;;;;;;;770776;182;919328;-65
2022/04/30 00:41:36;;;;;;;32.30;20.80;;;;;;;;;;776516;182;896160;-65
2022/04/30 00:44:02;;;;;;;25.37;18.87;;;;;;;;;;770857;182;919078;-65
2022/04/30 00:46:28;;;;;;;27.30;19.00;;;;;;;;;;771075;182;919751;-65
2022/04/30 00:48:57;;;;;;;32.72;19.20;;;;;;;;;;776573;182;918495;-65
2022/04/30 00:51:20;;;;;;;22.03;18.00;;;;;;;;;;771045;182;919215;-65
2022/04/30 00:53:47;;;;;;;22.57;18.00;;;;;;;;;;770304;182;1021335;-64
2022/04/30 00:56:13;;;;;;;28.73;18.60;;;;;;;;;;772035;182;919773;-65
2022/04/30 00:58:38;;;;;;;33.00;21.60;;;;;;;;;;773028;182;919003;-65
2022/04/30 01:01:04;;;;;;;25.30;19.30;;;;;;;;;;781835;178;1021738;-63
2022/04/30 01:03:30;;;;;;;25.40;18.80;;;;;;;;;;768211;182;919500;-64
2022/04/30 01:05:58;;;;;;;27.58;20.05;;;;;;;;;;773152;182;918556;-65
2022/04/30 01:08:22;;;;;;;25.67;20.03;;;;;;;;;;769521;180;919040;-64
2022/04/30 01:10:48;;;;;;;26.53;20.70;;;;;;;;;;769584;181;919062;-65
2022/04/30 01:13:14;;;;;;;27.87;18.52;;;;;;;;;;774270;181;916749;-65
2022/04/30 01:15:39;;;;;;;28.57;19.43;;;;;;;;;;769415;181;918877;-64
2022/04/30 01:18:06;;;;;;;32.23;20.27;;;;;;;;;;768676;182;920376;-64
2022/04/30 01:20:32;;;;;;;30.33;20.80;;;;;;;;;;766295;182;926062;-64
2022/04/30 01:22:58;;;;;;;34.00;18.87;;;;;;;;;;775211;179;920107;-64
2022/04/30 01:25:24;;;;;;;30.27;21.43;;;;;;;;;;768750;182;1021175;-65
2022/04/30 01:27:49;;;;;;;28.23;19.63;;;;;;;;;;767759;182;918741;-64
2022/04/30 01:30:17;;;;;;;33.00;21.27;;;;;;;;;;772631;182;1020770;-62
2022/04/30 01:37:44;;;;;;;24.00;18.43;;;;;;;;;;770898;179;1022351;-64
2022/04/30 01:40:11;;;;;;;25.13;20.93;;;;;;;;;;773508;182;918154;-65
2022/04/30 01:42:38;;;;;;;32.27;23.00;;;;;;;;;;768400;182;918978;-64
2022/04/30 01:45:04;;;;;;;33.35;21.95;;;;;;;;;;777145;177;1019149;-66
2022/04/30 01:47:30;;;;;;;31.83;20.77;;;;;;;;;;772253;182;919849;-64
2022/04/30 01:49:56;;;;;;;31.93;21.47;;;;;;;;;;767231;181;919462;-65
2022/04/30 01:52:22;;;;;;;29.33;22.57;;;;;;;;;;766930;182;920638;-65
2022/04/30 01:54:47;;;;;;;31.23;22.70;;;;;;;;;;767259;182;918988;-64
2022/04/30 01:57:21;;;;;;;29.30;21.53;;;;;;;;;;758021;185;918952;-65
2022/04/30 01:59:40;;;;;;;36.50;22.47;;;;;;;;;;748581;185;921602;-65
2022/04/30 02:02:05;;;;;;;34.27;22.30;;;;;;;;;;781580;178;1014605;-65
2022/04/30 02:04:31;;;;;;;32.40;23.10;;;;;;;;;;777637;182;914854;-65
2022/04/30 02:06:59;;;;;;;31.87;23.40;;;;;;;;;;770518;180;921149;-66
2022/04/30 02:09:23;;;;;;;32.70;22.93;;;;;;;;;;785391;176;922669;-66
2022/04/30 02:11:48;;;;;;;31.40;22.13;;;;;;;;;;776022;178;918577;-66
2022/04/30 02:14:15;;;;;;;30.77;21.83;;;;;;;;;;770560;182;919152;-66
2022/04/30 02:16:40;;;;;;;29.90;23.50;;;;;;;;;;770583;182;918940;-65
2022/04/30 02:19:06;;;;;;;34.10;24.00;;;;;;;;;;772568;180;919901;-64
2022/04/30 02:21:32;;;;;;;29.50;22.80;;;;;;;;;;770287;179;927612;-66
2022/04/30 02:23:58;;;;;;;29.40;22.23;;;;;;;;;;750944;185;918572;-66
2022/04/30 02:26:26;;;;;;;31.58;21.40;;;;;;;;;;781346;178;919247;-66
2022/04/30 02:28:49;;;;;;;31.03;21.13;;;;;;;;;;785331;178;919928;-65
2022/04/30 02:31:21;;;;;;;26.30;21.30;;;;;;;;;;772934;182;919795;-66
2022/04/30 02:33:46;;;;;;;31.92;22.33;;;;;;;;;;769081;182;917939;-66
2022/04/30 02:36:13;;;;;;;30.83;22.13;;;;;;;;;;775140;182;924105;-66
2022/04/30 02:38:37;;;;;;;31.10;23.80;;;;;;;;;;770722;182;919222;-66
2022/04/30 02:41:02;;;;;;;32.50;21.37;;;;;;;;;;770995;182;919574;-66
2022/04/30 02:43:30;;;;;;;36.80;22.97;;;;;;;;;;771855;182;917684;-66
2022/04/30 02:45:55;;;;;;;37.40;24.40;;;;;;;;;;776727;182;918898;-65
2022/04/30 02:48:20;;;;;;;37.07;24.80;;;;;;;;;;771280;182;920250;-66
2022/04/30 02:50:46;;;;;;;35.33;23.27;;;;;;;;;;768766;182;923028;-65
2022/04/30 02:53:12;;;;;;;30.37;21.37;;;;;;;;;;778990;179;918426;-66
2022/04/30 02:55:37;;;;;;;30.25;20.83;;;;;;;;;;752431;184;919015;-66
2022/04/30 03:00:36;;;;;;;32.10;22.20;;;;;;;;;;777557;179;1021553;-65
2022/04/30 03:03:01;;;;;;;28.67;21.33;;;;;;;;;;789046;177;920017;-66
2022/04/30 03:05:27;;;;;;;33.80;23.30;;;;;;;;;;787349;177;922775;-66
2022/04/30 03:07:53;;;;;;;30.37;21.77;;;;;;;;;;787041;176;919343;-67
2022/04/30 03:10:19;;;;;;;34.17;22.60;;;;;;;;;;793370;177;919233;-67
2022/04/30 03:12:45;;;;;;;30.93;21.90;;;;;;;;;;770769;182;919908;-66
2022/04/30 03:15:11;;;;;;;29.98;22.05;;;;;;;;;;770788;182;919005;-66
2022/04/30 03:22:40;;;;;;;35.70;22.93;;;;;;;;;;765932;182;918993;-67
2022/04/30 03:25:07;;;;;;;31.97;23.20;;;;;;;;;;766995;182;916408;-67
2022/04/30 03:27:32;;;;;;;33.03;23.20;;;;;;;;;;772563;182;915163;-68
2022/04/30 03:29:58;;;;;;;32.73;24.00;;;;;;;;;;766938;180;916573;-67
2022/04/30 03:32:24;;;;;;;30.53;21.80;;;;;;;;;;774243;178;919308;-66
2022/04/30 03:34:52;;;;;;;30.50;22.43;;;;;;;;;;771700;180;919891;-67
2022/04/30 03:37:18;;;;;;;35.50;23.90;;;;;;;;;;767575;182;918738;-67
2022/04/30 03:39:44;;;;;;;28.33;21.60;;;;;;;;;;763309;182;919199;-68
2022/04/30 03:42:09;;;;;;;37.47;23.40;;;;;;;;;;777086;177;918571;-67
2022/04/30 03:44:35;;;;;;;33.30;24.90;;;;;;;;;;773511;179;919260;-68
2022/04/30 03:47:01;;;;;;;32.90;24.33;;;;;;;;;;769092;182;919414;-68
2022/04/30 03:49:27;;;;;;;34.97;25.77;;;;;;;;;;767642;182;1020964;-67
2022/04/30 03:51:54;;;;;;;33.17;24.00;;;;;;;;;;773354;182;919515;-67
2022/04/30 03:54:19;;;;;;;34.30;22.40;;;;;;;;;;762321;182;919032;-67
2022/04/30 03:56:44;;;;;;;26.50;20.70;;;;;;;;;;766235;182;918951;-67
2022/04/30 03:59:10;;;;;;;31.30;21.80;;;;;;;;;;769647;177;919016;-66
2022/04/30 04:01:36;;;;;;;31.17;22.73;;;;;;;;;;768306;179;917286;-67
2022/04/30 04:04:02;;;;;;;34.73;23.67;;;;;;;;;;765613;182;918501;-67
2022/04/30 04:06:28;;;;;;;35.35;22.62;;;;;;;;;;766300;182;919357;-68
2022/04/30 04:08:54;;;;;;;29.50;22.30;;;;;;;;;;771618;182;918588;-67
2022/04/30 04:11:22;;;;;;;29.40;21.83;;;;;;;;;;772274;179;1030533;-67
2022/04/30 04:18:51;;;;;;;37.30;23.07;;;;;;;;;;771470;182;918118;-68
2022/04/30 04:21:14;;;;;;;37.10;25.30;;;;;;;;;;769828;182;905850;-67
2022/04/30 04:26:23;;;;;;;36.08;24.45;;;;;;;;;;767464;182;916241;-68
2022/04/30 04:28:49;;;;;;;48.53;28.77;;;;;;;;;;773292;182;915998;-69
2022/04/30 04:31:16;;;;;;;39.63;27.63;;;;;;;;;;764914;182;918904;-70
2022/04/30 04:33:40;;;;;;;39.17;26.90;;;;;;;;;;765056;182;921733;-69
2022/04/30 04:36:06;;;;;;;44.00;28.67;;;;;;;;;;778244;177;908666;-68
2022/04/30 04:38:32;;;;;;;39.07;27.90;;;;;;;;;;764960;182;922967;-66
2022/04/30 04:40:58;;;;;;;42.13;28.60;;;;;;;;;;766925;182;951993;-66
2022/04/30 04:43:24;;;;;;;45.93;31.07;;;;;;;;;;769891;180;917612;-67
2022/04/30 04:45:50;;;;;;;46.17;30.20;;;;;;;;;;773695;181;945100;-66
2022/04/30 04:48:16;;;;;;;48.23;29.17;;;;;;;;;;771790;179;1021925;-66
2022/04/30 04:50:41;;;;;;;43.47;30.13;;;;;;;;;;774672;175;919369;-66
2022/04/30 04:53:07;;;;;;;43.53;30.97;;;;;;;;;;777751;177;918876;-65
2022/04/30 04:55:33;;;;;;;48.40;29.30;;;;;;;;;;776007;175;913250;-66
2022/04/30 04:57:59;;;;;;;41.00;28.80;;;;;;;;;;772229;182;635089;-65
2022/04/30 05:00:25;;;;;;;40.80;25.70;;;;;;;;;;773041;182;919402;-65
2022/04/30 05:02:51;;;;;;;43.80;27.27;;;;;;;;;;769347;182;918678;-64
2022/04/30 05:05:16;;;;;;;34.57;25.07;;;;;;;;;;770861;177;1021130;-65
2022/04/30 05:07:44;;;;;;;32.42;22.98;;;;;;;;;;767777;182;1021227;-65
2022/04/30 05:10:08;;;;;;;38.47;25.77;;;;;;;;;;773985;182;918629;-64
2022/04/30 05:12:34;;;;;;;35.00;25.53;;;;;;;;;;769550;182;1020322;-66
2022/04/30 05:15:00;;;;;;;41.27;25.23;;;;;;;;;;768856;182;918927;-64
2022/04/30 05:17:26;;;;;;;35.87;25.60;;;;;;;;;;772459;182;918510;-65
2022/04/30 05:19:52;;;;;;;37.70;25.20;;;;;;;;;;769598;179;1034117;-65
2022/04/30 05:22:18;;;;;;;36.83;23.60;;;;;;;;;;766711;182;919012;-65
2022/04/30 05:24:44;;;;;;;33.40;22.73;;;;;;;;;;772671;182;918521;-65
2022/04/30 05:27:09;;;;;;;31.20;21.97;;;;;;;;;;768707;180;918554;-65
2022/04/30 05:29:35;;;;;;;29.70;22.40;;;;;;;;;;767935;182;919246;-64
2022/04/30 05:32:01;;;;;;;38.53;22.52;;;;;;;;;;782226;176;920186;-64
2022/04/30 05:34:28;;;;;;;34.90;21.50;;;;;;;;;;768907;178;1022275;-64
2022/04/30 05:36:54;;;;;;;40.80;20.53;;;;;;;;;;765580;182;919116;-65
2022/04/30 05:39:20;;;;;;;27.17;20.60;;;;;;;;;;770918;177;919579;-64
2022/04/30 05:41:46;;;;;;;32.57;20.00;;;;;;;;;;773077;182;920784;-65
2022/04/30 05:44:11;;;;;;;27.98;20.25;;;;;;;;;;766113;182;919038;-65
2022/04/30 05:46:37;;;;;;;27.20;19.47;;;;;;;;;;778411;176;919582;-64
2022/04/30 05:49:03;;;;;;;28.33;18.37;;;;;;;;;;771720;182;917664;-64
2022/04/30 05:51:29;;;;;;;41.47;21.37;;;;;;;;;;766684;182;919841;-67
2022/04/30 05:53:55;;;;;;;30.17;19.17;;;;;;;;;;767949;180;920271;-65
2022/04/30 05:56:20;;;;;;;32.80;18.77;;;;;;;;;;778498;177;915493;-65
2022/04/30 05:58:46;;;;;;;26.53;20.50;;;;;;;;;;769221;181;1017849;-65
2022/04/30 06:01:12;;;;;;;50.93;23.60;;;;;;;;;;768237;181;914767;-65
2022/04/30 06:03:39;;;;;;;30.07;20.80;;;;;;;;;;768820;182;918110;-65
2022/04/30 06:06:04;;;;;;;30.07;20.80;;;;;;;;;;773448;182;920157;-65
2022/04/30 06:08:30;;;;;;;29.87;22.30;;;;;;;;;;772857;178;1010969;-66
2022/04/30 06:10:56;;;;;;;29.97;20.63;;;;;;;;;;767592;182;921292;-66
2022/04/30 06:13:21;;;;;;;35.93;23.73;;;;;;;;;;771724;182;923339;-66
2022/04/30 06:15:47;;;;;;;34.80;25.20;;;;;;;;;;768335;182;920285;-67
2022/04/30 06:18:15;;;;;;;44.30;23.67;;;;;;;;;;768814;182;926870;-66
2022/04/30 06:20:39;;;;;;;37.53;23.87;;;;;;;;;;772239;182;906455;-66
2022/04/30 06:23:06;;;;;;;37.67;21.57;;;;;;;;;;768194;182;920912;-66
2022/04/30 06:25:31;;;;;;;38.15;23.70;;;;;;;;;;769891;182;916057;-66
2022/04/30 06:27:57;;;;;;;37.33;23.97;;;;;;;;;;768556;182;923999;-65
2022/04/30 06:30:22;;;;;;;43.27;26.20;;;;;;;;;;772333;182;915171;-66
2022/04/30 06:32:48;;;;;;;37.72;24.83;;;;;;;;;;768109;182;941189;-66
2022/04/30 06:35:14;;;;;;;40.30;24.60;;;;;;;;;;766463;182;915050;-66
2022/04/30 06:37:40;;;;;;;44.30;23.67;;;;;;;;;;773435;182;883046;-66
2022/04/30 06:40:06;;;;;;;39.20;26.90;;;;;;;;;;769231;182;630039;-66
2022/04/30 06:42:40;;;;;;;42.97;25.52;;;;;;;;;;767922;182;916136;-66
2022/04/30 06:45:04;;;;;;;40.60;25.57;;;;;;;;;;768402;180;1017971;-66
2022/04/30 06:47:30;;;;;;;39.77;25.93;;;;;;;;;;772717;181;915933;-66
2022/04/30 06:49:56;;;;;;;35.97;25.13;;;;;;;;;;766908;182;919488;-66
2022/04/30 06:52:21;;;;;;;38.33;25.40;;;;;;;;;;767459;182;919375;-66
2022/04/30 06:57:21;;;;;;;40.00;26.20;;;;;;;;;;763834;182;630865;-66
2022/04/30 06:59:45;;;;;;;37.47;24.90;;;;;;;;;;763483;184;619406;-66
2022/04/30 07:02:13;;;;;;;39.23;25.87;;;;;;;;;;771726;182;617183;-66
2022/04/30 07:04:39;;;;;;;38.00;25.10;;;;;;;;;;778178;179;918748;-66
2022/04/30 07:07:05;;;;;;;36.80;23.97;;;;;;;;;;771906;181;919408;-66
2022/04/30 07:09:32;;;;;;;40.73;25.10;;;;;;;;;;768734;182;920393;-67
2022/04/30 07:11:58;;;;;;;42.43;25.53;;;;;;;;;;774595;182;919467;-66
2022/04/30 07:14:24;;;;;;;35.93;23.80;;;;;;;;;;768194;182;919218;-67
2022/04/30 07:16:50;;;;;;;47.53;27.07;;;;;;;;;;769477;182;919404;-66
2022/04/30 07:19:17;;;;;;;37.50;23.83;;;;;;;;;;773693;182;920372;-67
2022/04/30 07:21:42;;;;;;;37.70;24.90;;;;;;;;;;768236;182;958495;-67
2022/04/30 07:24:08;;;;;;;45.15;27.55;;;;;;;;;;770171;182;919217;-68
2022/04/30 07:26:34;;;;;;;36.40;23.20;;;;;;;;;;767877;182;918263;-66
2022/04/30 07:29:00;;;;;;;37.63;24.67;;;;;;;;;;772316;182;1021571;-67
2022/04/30 07:31:26;;;;;;;34.80;24.20;;;;;;;;;;769198;177;917658;-67
2022/04/30 07:33:52;;;;;;;43.70;24.55;;;;;;;;;;772834;177;921323;-68
2022/04/30 07:36:17;;;;;;;37.60;25.30;;;;;;;;;;780314;177;915849;-66
2022/04/30 07:38:43;;;;;;;42.07;24.57;;;;;;;;;;769747;180;915065;-64
2022/04/30 07:41:09;;;;;;;34.60;24.27;;;;;;;;;;765968;182;919331;-67
2022/04/30 07:43:35;;;;;;;35.03;23.90;;;;;;;;;;772151;182;915391;-64
2022/04/30 07:46:01;;;;;;;45.57;26.20;;;;;;;;;;768801;182;917600;-64
2022/04/30 07:48:27;;;;;;;36.03;22.67;;;;;;;;;;778240;177;919406;-63
2022/04/30 07:50:57;;;;;;;37.73;23.67;;;;;;;;;;768839;182;1021044;-65
2022/04/30 07:53:19;;;;;;;43.20;27.50;;;;;;;;;;766506;182;918965;-66
2022/04/30 07:55:45;;;;;;;40.73;24.40;;;;;;;;;;766126;182;919529;-66
2022/04/30 07:58:11;;;;;;;42.00;23.30;;;;;;;;;;766256;182;926007;-66
2022/04/30 08:00:37;;;;;;;34.57;24.80;;;;;;;;;;774448;182;916129;-67
2022/04/30 08:03:03;;;;;;;37.83;25.02;;;;;;;;;;768884;182;918851;-67
2022/04/30 08:05:28;;;;;;;30.20;21.27;;;;;;;;;;768517;182;923508;-66
2022/04/30 08:07:55;;;;;;;34.53;23.40;;;;;;;;;;772343;182;919732;-66
2022/04/30 08:10:21;;;;;;;36.37;22.13;;;;;;;;;;766300;182;919739;-68
2022/04/30 08:12:47;;;;;;;31.27;21.17;;;;;;;;;;767029;182;919498;-68
2022/04/30 08:15:13;;;;;;;40.03;25.60;;;;;;;;;;766682;182;919377;-67
2022/04/30 08:17:39;;;;;;;39.07;26.37;;;;;;;;;;770420;181;920147;-67
2022/04/30 08:20:06;;;;;;;34.20;23.97;;;;;;;;;;767367;181;919259;-69
2022/04/30 08:22:32;;;;;;;38.37;24.13;;;;;;;;;;770139;181;897235;-67
2022/04/30 08:24:57;;;;;;;33.33;19.83;;;;;;;;;;772462;181;958149;-68
2022/04/30 08:27:23;;;;;;;33.43;20.80;;;;;;;;;;769771;182;924225;-68
2022/04/30 08:29:49;;;;;;;27.40;17.20;;;;;;;;;;767639;182;1021479;-68
2022/04/30 08:32:15;;;;;;;31.40;17.70;;;;;;;;;;773727;182;919200;-67
2022/04/30 08:34:41;;;;;;;32.87;19.50;;;;;;;;;;768126;182;919512;-68
2022/04/30 08:37:07;;;;;;;25.05;18.62;;;;;;;;;;766755;182;920331;-67
2022/04/30 08:39:33;;;;;;;37.50;19.57;;;;;;;;;;766597;182;926747;-67
2022/04/30 08:41:58;;;;;;;28.97;16.20;;;;;;;;;;762072;184;918642;-67
2022/04/30 08:44:24;;;;;;;36.03;17.83;;;;;;;;;;760268;185;919977;-68
2022/04/30 08:46:50;;;;;;;30.13;16.23;;;;;;;;;;756283;185;920300;-68
2022/04/30 08:49:16;;;;;;;42.77;17.43;;;;;;;;;;772577;182;916321;-68
2022/04/30 08:51:42;;;;;;;24.50;17.13;;;;;;;;;;752962;185;925050;-69
2022/04/30 08:54:08;;;;;;;27.50;18.67;;;;;;;;;;770523;182;922748;-67
2022/04/30 08:56:35;;;;;;;26.75;17.50;;;;;;;;;;777453;182;918396;-69
2022/04/30 08:59:04;;;;;;;25.43;16.93;;;;;;;;;;783922;179;626953;-68
2022/04/30 09:01:26;;;;;;;25.67;17.35;;;;;;;;;;771011;176;945835;-69
2022/04/30 09:03:52;;;;;;;29.67;17.65;;;;;;;;;;773532;182;919595;-67
2022/04/30 09:06:19;;;;;;;35.70;19.33;;;;;;;;;;776375;180;973619;-70
2022/04/30 09:08:48;;;;;;;28.70;18.23;;;;;;;;;;770722;182;921912;-67
2022/04/30 09:11:13;;;;;;;26.03;15.77;;;;;;;;;;770187;182;1022190;-68
2022/04/30 09:13:41;;;;;;;22.63;15.00;;;;;;;;;;784213;178;916577;-70
2022/04/30 09:16:07;;;;;;;21.67;15.07;;;;;;;;;;765702;180;1038476;-65
2022/04/30 09:18:33;;;;;;;19.62;12.73;;;;;;;;;;765150;182;918925;-67
2022/04/30 09:20:59;;;;;;;20.40;12.73;;;;;;;;;;771729;182;915848;-70
2022/04/30 09:23:32;;;;;;;18.37;12.17;;;;;;;;;;765934;182;923937;-63
2022/04/30 09:25:58;;;;;;;24.87;14.63;;;;;;;;;;764498;182;918079;-67
2022/04/30 09:28:25;;;;;;;30.75;19.08;;;;;;;;;;767591;182;922685;-66
2022/04/30 09:30:51;;;;;;;20.77;12.77;;;;;;;;;;777378;181;631186;-67
2022/04/30 09:33:16;;;;;;;25.58;12.50;;;;;;;;;;773510;181;911521;-69
2022/04/30 09:38:14;;;;;;;22.10;14.07;;;;;;;;;;771376;180;906308;-68
2022/04/30 09:40:40;;;;;;;20.63;14.33;;;;;;;;;;771195;182;926401;-67
2022/04/30 09:43:06;;;;;;;24.83;11.97;;;;;;;;;;768014;182;1017602;-68
2022/04/30 09:45:32;;;;;;;20.63;12.60;;;;;;;;;;774692;177;919511;-67
2022/04/30 09:47:58;;;;;;;21.17;12.23;;;;;;;;;;773064;177;919651;-66
2022/04/30 09:55:29;;;;;;;18.97;10.70;;;;;;;;;;766305;182;914135;-68
2022/04/30 09:57:53;;;;;;;17.33;9.63;;;;;;;;;;772628;182;913610;-66
2022/04/30 10:00:19;;;;;;;17.50;10.03;;;;;;;;;;768932;182;920414;-62
2022/04/30 10:02:45;;;;;;;18.90;10.20;;;;;;;;;;771352;182;911065;-66
2022/04/30 10:05:11;;;;;;;16.30;10.40;;;;;;;;;;767026;182;914661;-64
2022/04/30 10:07:37;;;;;;;25.37;10.80;;;;;;;;;;771513;180;911736;-66
2022/04/30 10:10:09;;;;;;;13.90;9.40;;;;;;;;;;769997;182;909473;-68
2022/04/30 10:12:36;;;;;;;13.90;9.67;;;;;;;;;;773119;179;919306;-68
2022/04/30 10:15:06;;;;;;;21.03;9.23;;;;;;;;;;770378;182;919617;-68
2022/04/30 10:17:33;;;;;;;15.48;9.80;;;;;;;;;;772021;179;915992;-67
2022/04/30 10:19:59;;;;;;;14.07;10.90;;;;;;;;;;766428;182;1040033;-67
2022/04/30 10:22:24;;;;;;;22.87;9.77;;;;;;;;;;766914;182;919689;-66
2022/04/30 10:24:50;;;;;;;13.70;9.37;;;;;;;;;;777551;179;919870;-67
2022/04/30 10:27:16;;;;;;;11.10;8.73;;;;;;;;;;765905;182;931498;-67
2022/04/30 10:29:48;;;;;;;15.50;11.17;;;;;;;;;;767240;179;1127409;-67
2022/04/30 10:32:14;;;;;;;26.20;18.53;;;;;;;;;;774511;177;918398;-66
2022/04/30 10:34:40;;;;;;;14.57;9.57;;;;;;;;;;771721;182;918912;-67
2022/04/30 10:37:07;;;;;;;19.17;12.47;;;;;;;;;;772217;177;870806;-69
2022/04/30 10:39:31;;;;;;;13.53;7.93;;;;;;;;;;778209;177;613751;-68
2022/04/30 10:41:57;;;;;;;15.33;9.30;;;;;;;;;;777255;181;816347;-68
2022/04/30 10:44:27;;;;;;;29.03;10.47;;;;;;;;;;775554;175;913966;-68
2022/04/30 10:46:53;;;;;;;12.40;7.83;;;;;;;;;;771898;181;645862;-68
2022/04/30 10:49:18;;;;;;;15.10;9.05;;;;;;;;;;775474;181;634947;-67
2022/04/30 10:51:45;;;;;;;19.37;11.97;;;;;;;;;;773952;182;710258;-68
2022/04/30 10:54:10;;;;;;;18.57;10.80;;;;;;;;;;773218;182;623732;-68
2022/04/30 10:56:36;;;;;;;23.53;10.73;;;;;;;;;;773069;182;625031;-68
2022/04/30 10:59:02;;;;;;;15.13;8.57;;;;;;;;;;773179;182;916319;-68
2022/04/30 11:01:28;;;;;;;12.73;8.20;;;;;;;;;;771908;182;635981;-67
2022/04/30 11:03:54;;;;;;;13.50;9.40;;;;;;;;;;771626;177;635042;-68
2022/04/30 11:06:20;;;;;;;15.87;8.97;;;;;;;;;;781714;176;627539;-69
2022/04/30 11:08:52;;;;;;;11.00;8.30;;;;;;;;;;772251;182;918920;-66
2022/04/30 11:11:18;;;;;;;17.40;9.53;;;;;;;;;;767896;182;1000080;-66
2022/04/30 11:13:44;;;;;;;15.90;10.63;;;;;;;;;;775405;177;917676;-68
2022/04/30 11:16:13;;;;;;;17.30;11.07;;;;;;;;;;775377;177;919739;-66
2022/04/30 11:18:38;;;;;;;16.80;10.07;;;;;;;;;;774040;178;920292;-65
2022/04/30 11:21:04;;;;;;;16.43;9.90;;;;;;;;;;782039;175;635949;-65
2022/04/30 11:23:30;;;;;;;16.10;10.10;;;;;;;;;;788398;175;876925;-64
2022/04/30 11:25:56;;;;;;;18.70;10.03;;;;;;;;;;770625;177;1064555;-65
2022/04/30 11:28:22;;;;;;;18.20;11.43;;;;;;;;;;768662;182;916766;-69
2022/04/30 11:30:48;;;;;;;20.13;11.10;;;;;;;;;;772504;182;923138;-67
2022/04/30 11:33:13;;;;;;;15.57;10.60;;;;;;;;;;776661;177;902999;-65
2022/04/30 11:35:39;;;;;;;15.37;10.40;;;;;;;;;;766993;182;919428;-67
2022/04/30 11:38:08;;;;;;;19.40;11.60;;;;;;;;;;770038;180;919167;-64
2022/04/30 11:40:34;;;;;;;18.30;11.27;;;;;;;;;;774175;182;918527;-67
2022/04/30 11:43:00;;;;;;;19.10;11.90;;;;;;;;;;775589;177;946657;-66
2022/04/30 11:45:26;;;;;;;16.87;10.43;;;;;;;;;;775867;177;630173;-68
2022/04/30 11:47:51;;;;;;;15.00;10.70;;;;;;;;;;773496;182;912875;-66
2022/04/30 11:50:17;;;;;;;18.00;11.63;;;;;;;;;;772470;182;617752;-66
2022/04/30 11:52:43;;;;;;;16.37;11.90;;;;;;;;;;778433;177;618501;-65
2022/04/30 11:55:09;;;;;;;13.13;9.30;;;;;;;;;;769676;182;932174;-66
2022/04/30 11:57:35;;;;;;;15.63;11.03;;;;;;;;;;778237;177;919337;-67
2022/04/30 12:00:01;;;;;;;15.90;10.00;;;;;;;;;;772467;179;918777;-66
2022/04/30 12:02:29;;;;;;;18.13;10.83;;;;;;;;;;773826;175;911789;-64
2022/04/30 12:04:55;;;;;;;24.30;10.67;;;;;;;;;;781602;175;919308;-66
2022/04/30 12:07:20;;;;;;;19.00;11.90;;;;;;;;;;766270;182;919515;-67
2022/04/30 12:09:46;;;;;;;20.50;11.40;;;;;;;;;;767381;182;919402;-65
2022/04/30 12:12:16;;;;;;;17.27;10.40;;;;;;;;;;773644;182;919317;-65
2022/04/30 12:14:44;;;;;;;13.65;9.98;;;;;;;;;;770951;182;919062;-61
2022/04/30 12:17:10;;;;;;;14.93;9.90;;;;;;;;;;765599;182;1020841;-66
2022/04/30 12:24:52;;;;;;;15.77;9.57;;;;;;;;;;772347;182;919397;-68
2022/04/30 12:27:18;;;;;;;16.53;10.10;;;;;;;;;;769132;182;918711;-68
2022/04/30 12:29:44;;;;;;;13.70;9.37;;;;;;;;;;768732;182;919735;-67
2022/04/30 12:32:10;;;;;;;13.53;10.37;;;;;;;;;;769208;182;918899;-67
2022/04/30 12:34:37;;;;;;;15.67;10.93;;;;;;;;;;773747;182;919547;-67
2022/04/30 12:37:03;;;;;;;22.47;10.77;;;;;;;;;;760900;182;1021165;-68
2022/04/30 12:39:29;;;;;;;15.85;9.50;;;;;;;;;;771827;179;1045696;-66
2022/04/30 12:41:54;;;;;;;14.30;9.83;;;;;;;;;;773285;182;921230;-65
2022/04/30 12:44:20;;;;;;;13.13;9.43;;;;;;;;;;767345;182;921469;-73
2022/04/30 12:46:46;;;;;;;15.20;9.20;;;;;;;;;;769550;182;891361;-67
2022/04/30 12:49:12;;;;;;;18.63;10.67;;;;;;;;;;772715;182;920255;-65
2022/04/30 12:51:39;;;;;;;25.30;11.30;;;;;;;;;;776057;177;919975;-68
2022/04/30 12:54:05;;;;;;;15.00;10.37;;;;;;;;;;764967;182;920287;-66
2022/04/30 12:56:31;;;;;;;15.97;9.83;;;;;;;;;;768768;182;921080;-64
2022/04/30 12:58:57;;;;;;;12.70;8.43;;;;;;;;;;772241;182;1016601;-67
2022/04/30 13:01:23;;;;;;;18.77;10.27;;;;;;;;;;766036;182;924829;-64
2022/04/30 13:03:48;;;;;;;16.30;11.33;;;;;;;;;;769956;180;854994;-67
2022/04/30 13:06:14;;;;;;;18.20;10.27;;;;;;;;;;777387;181;674579;-66
2022/04/30 13:13:43;;;;;;;18.10;10.83;;;;;;;;;;766816;182;984035;-69
2022/04/30 13:16:10;;;;;;;16.27;10.87;;;;;;;;;;774915;182;904981;-66
2022/04/30 13:18:36;;;;;;;18.10;9.27;;;;;;;;;;771663;182;927959;-66
2022/04/30 13:21:03;;;;;;;19.50;10.10;;;;;;;;;;768605;182;1010863;-65
2022/04/30 13:23:27;;;;;;;18.60;11.10;;;;;;;;;;773132;182;919959;-64
2022/04/30 13:25:53;;;;;;;18.73;11.53;;;;;;;;;;767294;182;921384;-69
2022/04/30 13:28:20;;;;;;;14.37;10.30;;;;;;;;;;761203;179;918633;-70
2022/04/30 13:30:45;;;;;;;16.53;9.93;;;;;;;;;;770585;175;1021133;-67
2022/04/30 13:33:12;;;;;;;12.80;10.23;;;;;;;;;;776492;182;918824;-73
2022/04/30 13:35:38;;;;;;;16.70;10.10;;;;;;;;;;771688;182;818035;-72
2022/04/30 13:38:04;;;;;;;13.98;10.38;;;;;;;;;;769042;182;920711;-66
2022/04/30 13:40:30;;;;;;;14.23;8.70;;;;;;;;;;771085;182;927606;-66
2022/04/30 13:42:56;;;;;;;12.60;10.27;;;;;;;;;;767389;182;920225;-70
2022/04/30 13:45:22;;;;;;;13.00;9.93;;;;;;;;;;766626;182;916904;-67
2022/04/30 13:47:48;;;;;;;14.60;10.07;;;;;;;;;;771922;182;936777;-65
2022/04/30 13:50:14;;;;;;;14.47;10.73;;;;;;;;;;777696;175;918132;-70
2022/04/30 13:52:40;;;;;;;14.75;9.02;;;;;;;;;;768392;182;1022116;-69
2022/04/30 13:55:07;;;;;;;18.47;11.37;;;;;;;;;;767769;182;919336;-68
2022/04/30 13:57:32;;;;;;;12.33;9.17;;;;;;;;;;775909;177;916754;-70
2022/04/30 13:59:57;;;;;;;15.77;9.63;;;;;;;;;;770151;177;916682;-67
2022/04/30 14:02:25;;;;;;;12.85;9.13;;;;;;;;;;766445;182;949620;-67
2022/04/30 14:04:49;;;;;;;12.40;9.17;;;;;;;;;;774467;182;915340;-67
2022/04/30 14:07:16;;;;;;;15.57;9.30;;;;;;;;;;775277;179;922932;-69
2022/04/30 14:09:42;;;;;;;12.43;10.33;;;;;;;;;;771073;182;915111;-69
2022/04/30 14:12:08;;;;;;;16.10;9.80;;;;;;;;;;771935;182;914963;-67
2022/04/30 14:19:37;;;;;;;17.10;9.70;;;;;;;;;;769431;181;931488;-68
2022/04/30 14:22:06;;;;;;;17.83;9.57;;;;;;;;;;779737;176;919313;-65
2022/04/30 14:24:29;;;;;;;13.63;9.70;;;;;;;;;;759382;182;898955;-63
2022/04/30 14:26:55;;;;;;;13.50;9.53;;;;;;;;;;774098;176;918997;-67
2022/04/30 14:29:21;;;;;;;13.27;8.73;;;;;;;;;;772976;182;776124;-66
2022/04/30 14:31:47;;;;;;;16.03;9.87;;;;;;;;;;772167;182;900111;-65
2022/04/30 14:34:13;;;;;;;16.27;9.70;;;;;;;;;;766602;182;923673;-73
2022/04/30 14:36:40;;;;;;;15.25;10.70;;;;;;;;;;767314;182;914434;-66
2022/04/30 14:39:05;;;;;;;13.40;9.60;;;;;;;;;;774233;182;922612;-70
2022/04/30 14:41:31;;;;;;;13.03;9.70;;;;;;;;;;769395;182;904584;-69